sensor_id;sensor_type;location;lat;lon;timestamp;temperature;humidity
4052;DHT22;2040;50.924;11.604;2022-07-23T00:02:15;18.90;99.90
4052;DHT22;2040;50.924;11.604;2022-07-23T00:04:41;18.90;99.90
4052;DHT22;2040;50.924;11.604;2022-07-23T00:07:06;18.80;99.90
4052;DHT22;2040;50.924;11.604;2022-07-23T00:09:32;19.00;99.90
4052;DHT22;2040;50.924;11.604;2022-07-23T00:11:57;19.00;99.90
4052;DHT22;2040;50.924;11.604;2022-07-23T00:14:23;18.90;99.90
4052;DHT22;2040;50.924;11.604;2022-07-23T00:16:48;18.90;99.90
4052;DHT22;2040;50.924;11.604;2022-07-23T00:19:14;18.90;99.90
4052;DHT22;2040;50.924;11.604;2022-07-23T00:21:40;18.90;99.90
4052;DHT22;2040;50.924;11.604;2022-07-23T00:24:05;18.80;99.90
4052;DHT22;2040;50.924;11.604;2022-07-23T00:26:31;18.80;99.90
4052;DHT22;2040;50.924;11.604;2022-07-23T00:28:56;18.80;99.90
4052;DHT22;2040;50.924;11.604;2022-07-23T00:31:22;18.80;99.90
4052;DHT22;2040;50.924;11.604;2022-07-23T00:33:47;18.70;99.90
4052;DHT22;2040;50.924;11.604;2022-07-23T00:36:13;18.70;99.90
4052;DHT22;2040;50.924;11.604;2022-07-23T00:38:39;18.80;99.90
4052;DHT22;2040;50.924;11.604;2022-07-23T00:41:04;18.80;99.90
4052;DHT22;2040;50.924;11.604;2022-07-23T00:43:30;18.60;99.90
4052;DHT22;2040;50.924;11.604;2022-07-23T00:45:55;18.80;99.90
4052;DHT22;2040;50.924;11.604;2022-07-23T00:48:21;18.70;99.90
4052;DHT22;2040;50.924;11.604;2022-07-23T00:50:47;18.70;99.90
4052;DHT22;2040;50.924;11.604;2022-07-23T00:53:13;18.70;99.90
4052;DHT22;2040;50.924;11.604;2022-07-23T00:55:39;18.70;99.90
4052;DHT22;2040;50.924;11.604;2022-07-23T00:58:05;18.80;99.90
4052;DHT22;2040;50.924;11.604;2022-07-23T01:00:31;18.70;99.90
4052;DHT22;2040;50.924;11.604;2022-07-23T01:02:57;18.80;99.90
4052;DHT22;2040;50.924;11.604;2022-07-23T01:05:22;18.80;99.90
4052;DHT22;2040;50.924;11.604;2022-07-23T01:07:49;18.80;99.90
4052;DHT22;2040;50.924;11.604;2022-07-23T01:10:15;18.80;99.90
4052;DHT22;2040;50.924;11.604;2022-07-23T01:13:07;18.70;99.90
4052;DHT22;2040;50.924;11.604;2022-07-23T01:15:35;18.70;99.90
4052;DHT22;2040;50.924;11.604;2022-07-23T01:18:02;18.80;99.90
4052;DHT22;2040;50.924;11.604;2022-07-23T01:20:29;18.80;99.90
4052;DHT22;2040;50.924;11.604;2022-07-23T01:22:55;18.80;99.90
4052;DHT22;2040;50.924;11.604;2022-07-23T01:25:21;18.80;99.90
4052;DHT22;2040;50.924;11.604;2022-07-23T01:27:47;18.80;99.90
4052;DHT22;2040;50.924;11.604;2022-07-23T01:30:13;18.70;99.90
4052;DHT22;2040;50.924;11.604;2022-07-23T01:32:39;18.60;99.90
4052;DHT22;2040;50.924;11.604;2022-07-23T01:35:06;18.60;99.90
4052;DHT22;2040;50.924;11.604;2022-07-23T01:37:32;18.50;99.90
4052;DHT22;2040;50.924;11.604;2022-07-23T01:39:57;18.40;99.90
4052;DHT22;2040;50.924;11.604;2022-07-23T01:42:23;18.30;99.90
4052;DHT22;2040;50.924;11.604;2022-07-23T01:44:49;18.40;99.90
4052;DHT22;2040;50.924;11.604;2022-07-23T01:47:15;18.30;99.90
4052;DHT22;2040;50.924;11.604;2022-07-23T01:49:40;18.30;99.90
4052;DHT22;2040;50.924;11.604;2022-07-23T01:52:06;18.20;99.90
4052;DHT22;2040;50.924;11.604;2022-07-23T01:54:36;18.20;99.90
4052;DHT22;2040;50.924;11.604;2022-07-23T01:57:02;18.20;99.90
4052;DHT22;2040;50.924;11.604;2022-07-23T01:59:28;18.10;99.90
4052;DHT22;2040;50.924;11.604;2022-07-23T02:01:54;18.10;99.90
4052;DHT22;2040;50.924;11.604;2022-07-23T02:04:20;18.10;99.90
4052;DHT22;2040;50.924;11.604;2022-07-23T02:06:47;18.10;99.90
4052;DHT22;2040;50.924;11.604;2022-07-23T02:09:13;18.10;99.90
4052;DHT22;2040;50.924;11.604;2022-07-23T02:11:39;18.10;99.90
4052;DHT22;2040;50.924;11.604;2022-07-23T02:14:04;18.00;99.90
4052;DHT22;2040;50.924;11.604;2022-07-23T02:16:30;18.00;99.90
4052;DHT22;2040;50.924;11.604;2022-07-23T02:18:55;17.90;99.90
4052;DHT22;2040;50.924;11.604;2022-07-23T02:21:21;17.80;99.90
4052;DHT22;2040;50.924;11.604;2022-07-23T02:23:47;17.80;99.90
4052;DHT22;2040;50.924;11.604;2022-07-23T02:26:12;17.80;99.90
4052;DHT22;2040;50.924;11.604;2022-07-23T02:28:38;17.80;99.90
4052;DHT22;2040;50.924;11.604;2022-07-23T02:31:03;17.80;99.90
4052;DHT22;2040;50.924;11.604;2022-07-23T02:33:29;17.70;99.90
4052;DHT22;2040;50.924;11.604;2022-07-23T02:35:55;17.70;99.90
4052;DHT22;2040;50.924;11.604;2022-07-23T02:38:21;17.70;99.90
4052;DHT22;2040;50.924;11.604;2022-07-23T02:40:46;17.70;99.90
4052;DHT22;2040;50.924;11.604;2022-07-23T02:43:12;17.70;99.90
4052;DHT22;2040;50.924;11.604;2022-07-23T02:45:37;17.60;99.90
4052;DHT22;2040;50.924;11.604;2022-07-23T02:48:03;17.60;99.90
4052;DHT22;2040;50.924;11.604;2022-07-23T02:50:29;17.50;99.90
4052;DHT22;2040;50.924;11.604;2022-07-23T02:52:54;17.50;99.90
4052;DHT22;2040;50.924;11.604;2022-07-23T02:55:20;17.40;99.90
4052;DHT22;2040;50.924;11.604;2022-07-23T02:57:45;17.30;99.90
4052;DHT22;2040;50.924;11.604;2022-07-23T03:00:11;17.30;99.90
4052;DHT22;2040;50.924;11.604;2022-07-23T03:02:37;17.40;99.90
4052;DHT22;2040;50.924;11.604;2022-07-23T03:05:03;17.40;99.90
4052;DHT22;2040;50.924;11.604;2022-07-23T03:07:29;17.40;99.90
4052;DHT22;2040;50.924;11.604;2022-07-23T03:09:54;17.50;99.90
4052;DHT22;2040;50.924;11.604;2022-07-23T03:12:20;17.50;99.90
4052;DHT22;2040;50.924;11.604;2022-07-23T03:14:45;17.40;99.90
4052;DHT22;2040;50.924;11.604;2022-07-23T03:17:11;17.50;99.90
4052;DHT22;2040;50.924;11.604;2022-07-23T03:19:36;17.50;99.90
4052;DHT22;2040;50.924;11.604;2022-07-23T03:22:03;17.50;99.90
4052;DHT22;2040;50.924;11.604;2022-07-23T03:24:28;17.50;99.90
4052;DHT22;2040;50.924;11.604;2022-07-23T03:27:14;17.40;99.90
4052;DHT22;2040;50.924;11.604;2022-07-23T03:29:40;17.30;99.90
4052;DHT22;2040;50.924;11.604;2022-07-23T03:32:05;17.10;99.90
4052;DHT22;2040;50.924;11.604;2022-07-23T03:34:31;17.10;99.90
4052;DHT22;2040;50.924;11.604;2022-07-23T03:36:56;17.10;99.90
4052;DHT22;2040;50.924;11.604;2022-07-23T03:39:22;17.10;99.90
4052;DHT22;2040;50.924;11.604;2022-07-23T03:41:48;16.80;99.90
4052;DHT22;2040;50.924;11.604;2022-07-23T03:44:13;16.60;99.90
4052;DHT22;2040;50.924;11.604;2022-07-23T03:46:39;16.40;99.90
4052;DHT22;2040;50.924;11.604;2022-07-23T03:49:04;16.10;99.90
4052;DHT22;2040;50.924;11.604;2022-07-23T03:51:30;15.90;99.90
4052;DHT22;2040;50.924;11.604;2022-07-23T03:53:55;15.90;99.90
4052;DHT22;2040;50.924;11.604;2022-07-23T03:56:21;15.80;99.90
4052;DHT22;2040;50.924;11.604;2022-07-23T03:58:47;15.80;99.90
4052;DHT22;2040;50.924;11.604;2022-07-23T04:01:13;15.80;99.90
4052;DHT22;2040;50.924;11.604;2022-07-23T04:03:38;15.90;99.90
4052;DHT22;2040;50.924;11.604;2022-07-23T04:06:05;15.80;99.90
4052;DHT22;2040;50.924;11.604;2022-07-23T04:08:31;15.80;99.90
4052;DHT22;2040;50.924;11.604;2022-07-23T04:10:56;15.90;99.90
4052;DHT22;2040;50.924;11.604;2022-07-23T04:13:22;16.00;99.90
4052;DHT22;2040;50.924;11.604;2022-07-23T04:15:47;16.00;99.90
4052;DHT22;2040;50.924;11.604;2022-07-23T04:18:13;16.10;99.90
4052;DHT22;2040;50.924;11.604;2022-07-23T04:20:38;16.10;99.90
4052;DHT22;2040;50.924;11.604;2022-07-23T04:23:04;16.20;99.90
4052;DHT22;2040;50.924;11.604;2022-07-23T04:25:30;16.20;99.90
4052;DHT22;2040;50.924;11.604;2022-07-23T04:27:55;16.10;99.90
4052;DHT22;2040;50.924;11.604;2022-07-23T04:30:21;16.10;99.90
4052;DHT22;2040;50.924;11.604;2022-07-23T04:32:46;16.10;99.90
4052;DHT22;2040;50.924;11.604;2022-07-23T04:35:13;16.10;99.90
4052;DHT22;2040;50.924;11.604;2022-07-23T04:37:39;16.00;99.90
4052;DHT22;2040;50.924;11.604;2022-07-23T04:40:05;16.00;99.90
4052;DHT22;2040;50.924;11.604;2022-07-23T04:42:31;16.00;99.90
4052;DHT22;2040;50.924;11.604;2022-07-23T04:44:56;16.10;99.90
4052;DHT22;2040;50.924;11.604;2022-07-23T04:47:22;16.20;99.90
4052;DHT22;2040;50.924;11.604;2022-07-23T04:49:47;16.30;99.90
4052;DHT22;2040;50.924;11.604;2022-07-23T04:52:13;16.40;99.90
4052;DHT22;2040;50.924;11.604;2022-07-23T04:54:40;16.50;99.90
4052;DHT22;2040;50.924;11.604;2022-07-23T04:57:06;16.60;99.90
4052;DHT22;2040;50.924;11.604;2022-07-23T04:59:31;16.60;99.90
4052;DHT22;2040;50.924;11.604;2022-07-23T05:01:57;16.70;99.90
4052;DHT22;2040;50.924;11.604;2022-07-23T05:04:22;16.70;99.90
4052;DHT22;2040;50.924;11.604;2022-07-23T05:06:48;16.70;99.90
4052;DHT22;2040;50.924;11.604;2022-07-23T05:09:13;16.70;99.90
4052;DHT22;2040;50.924;11.604;2022-07-23T05:11:39;16.60;99.90
4052;DHT22;2040;50.924;11.604;2022-07-23T05:14:04;16.60;99.90
4052;DHT22;2040;50.924;11.604;2022-07-23T05:16:30;16.70;99.90
4052;DHT22;2040;50.924;11.604;2022-07-23T05:18:56;16.70;99.90
4052;DHT22;2040;50.924;11.604;2022-07-23T05:21:21;16.80;99.90
4052;DHT22;2040;50.924;11.604;2022-07-23T05:23:47;16.70;99.90
4052;DHT22;2040;50.924;11.604;2022-07-23T05:26:12;16.70;99.90
4052;DHT22;2040;50.924;11.604;2022-07-23T05:28:38;16.60;99.90
4052;DHT22;2040;50.924;11.604;2022-07-23T05:31:03;16.70;99.90
4052;DHT22;2040;50.924;11.604;2022-07-23T05:33:29;16.70;99.90
4052;DHT22;2040;50.924;11.604;2022-07-23T05:36:01;16.80;99.90
4052;DHT22;2040;50.924;11.604;2022-07-23T05:38:27;16.80;99.90
4052;DHT22;2040;50.924;11.604;2022-07-23T05:40:52;16.80;99.90
4052;DHT22;2040;50.924;11.604;2022-07-23T05:43:18;16.80;99.90
4052;DHT22;2040;50.924;11.604;2022-07-23T05:45:43;16.80;99.90
4052;DHT22;2040;50.924;11.604;2022-07-23T05:48:09;16.80;99.90
4052;DHT22;2040;50.924;11.604;2022-07-23T05:50:34;16.70;99.90
4052;DHT22;2040;50.924;11.604;2022-07-23T05:53:00;16.80;99.90
4052;DHT22;2040;50.924;11.604;2022-07-23T05:55:26;16.80;99.90
4052;DHT22;2040;50.924;11.604;2022-07-23T05:57:58;16.80;99.90
4052;DHT22;2040;50.924;11.604;2022-07-23T06:00:24;16.90;99.90
4052;DHT22;2040;50.924;11.604;2022-07-23T06:02:50;16.90;99.90
4052;DHT22;2040;50.924;11.604;2022-07-23T06:05:16;16.90;99.90
4052;DHT22;2040;50.924;11.604;2022-07-23T06:07:42;17.10;99.90
4052;DHT22;2040;50.924;11.604;2022-07-23T06:10:08;17.00;99.90
4052;DHT22;2040;50.924;11.604;2022-07-23T06:12:33;17.00;99.90
4052;DHT22;2040;50.924;11.604;2022-07-23T06:14:59;17.00;99.90
4052;DHT22;2040;50.924;11.604;2022-07-23T06:17:25;16.90;99.90
4052;DHT22;2040;50.924;11.604;2022-07-23T06:19:52;17.00;99.90
4052;DHT22;2040;50.924;11.604;2022-07-23T06:22:17;17.10;99.90
4052;DHT22;2040;50.924;11.604;2022-07-23T06:24:43;17.30;99.90
4052;DHT22;2040;50.924;11.604;2022-07-23T06:27:08;17.40;99.90
4052;DHT22;2040;50.924;11.604;2022-07-23T06:29:34;17.50;99.90
4052;DHT22;2040;50.924;11.604;2022-07-23T06:32:00;17.60;99.90
4052;DHT22;2040;50.924;11.604;2022-07-23T06:34:25;17.60;99.90
4052;DHT22;2040;50.924;11.604;2022-07-23T06:36:51;17.60;99.90
4052;DHT22;2040;50.924;11.604;2022-07-23T06:39:17;17.60;99.90
4052;DHT22;2040;50.924;11.604;2022-07-23T06:41:42;17.70;99.90
4052;DHT22;2040;50.924;11.604;2022-07-23T06:44:08;17.80;99.90
4052;DHT22;2040;50.924;11.604;2022-07-23T06:46:33;17.90;99.90
4052;DHT22;2040;50.924;11.604;2022-07-23T06:48:59;17.90;99.90
4052;DHT22;2040;50.924;11.604;2022-07-23T06:51:25;17.80;99.90
4052;DHT22;2040;50.924;11.604;2022-07-23T06:53:51;17.80;99.90
4052;DHT22;2040;50.924;11.604;2022-07-23T06:56:16;17.70;99.90
4052;DHT22;2040;50.924;11.604;2022-07-23T06:58:42;17.70;99.90
4052;DHT22;2040;50.924;11.604;2022-07-23T07:01:08;17.70;99.90
4052;DHT22;2040;50.924;11.604;2022-07-23T07:03:33;17.60;99.90
4052;DHT22;2040;50.924;11.604;2022-07-23T07:05:59;17.60;99.90
4052;DHT22;2040;50.924;11.604;2022-07-23T07:08:24;17.60;99.90
4052;DHT22;2040;50.924;11.604;2022-07-23T07:10:50;17.70;99.90
4052;DHT22;2040;50.924;11.604;2022-07-23T07:13:16;17.80;99.90
4052;DHT22;2040;50.924;11.604;2022-07-23T07:15:41;18.00;99.90
4052;DHT22;2040;50.924;11.604;2022-07-23T07:18:07;18.20;99.90
4052;DHT22;2040;50.924;11.604;2022-07-23T07:20:33;18.40;99.90
4052;DHT22;2040;50.924;11.604;2022-07-23T07:22:58;18.40;99.90
4052;DHT22;2040;50.924;11.604;2022-07-23T07:25:24;18.30;99.90
4052;DHT22;2040;50.924;11.604;2022-07-23T07:27:49;18.30;99.90
4052;DHT22;2040;50.924;11.604;2022-07-23T07:30:15;18.30;99.90
4052;DHT22;2040;50.924;11.604;2022-07-23T07:32:41;18.60;99.90
4052;DHT22;2040;50.924;11.604;2022-07-23T07:35:08;18.50;99.90
4052;DHT22;2040;50.924;11.604;2022-07-23T07:37:33;18.60;99.90
4052;DHT22;2040;50.924;11.604;2022-07-23T07:39:59;18.60;99.90
4052;DHT22;2040;50.924;11.604;2022-07-23T07:42:25;18.30;99.90
4052;DHT22;2040;50.924;11.604;2022-07-23T07:44:51;18.30;99.90
4052;DHT22;2040;50.924;11.604;2022-07-23T07:47:16;18.50;99.90
4052;DHT22;2040;50.924;11.604;2022-07-23T07:49:42;18.70;99.90
4052;DHT22;2040;50.924;11.604;2022-07-23T07:52:08;18.90;99.90
4052;DHT22;2040;50.924;11.604;2022-07-23T07:54:34;19.00;99.90
4052;DHT22;2040;50.924;11.604;2022-07-23T07:57:00;19.10;99.90
4052;DHT22;2040;50.924;11.604;2022-07-23T07:59:28;19.30;99.90
4052;DHT22;2040;50.924;11.604;2022-07-23T08:01:53;19.30;99.90
4052;DHT22;2040;50.924;11.604;2022-07-23T08:04:19;19.30;99.90
4052;DHT22;2040;50.924;11.604;2022-07-23T08:06:45;19.50;99.90
4052;DHT22;2040;50.924;11.604;2022-07-23T08:09:10;19.70;99.90
4052;DHT22;2040;50.924;11.604;2022-07-23T08:11:36;19.80;99.90
4052;DHT22;2040;50.924;11.604;2022-07-23T08:14:02;19.90;99.90
4052;DHT22;2040;50.924;11.604;2022-07-23T08:16:27;19.80;99.90
4052;DHT22;2040;50.924;11.604;2022-07-23T08:18:53;19.80;99.90
4052;DHT22;2040;50.924;11.604;2022-07-23T08:21:19;20.00;99.90
4052;DHT22;2040;50.924;11.604;2022-07-23T08:23:45;20.00;99.90
4052;DHT22;2040;50.924;11.604;2022-07-23T08:26:11;20.00;99.90
4052;DHT22;2040;50.924;11.604;2022-07-23T08:28:36;20.10;99.90
4052;DHT22;2040;50.924;11.604;2022-07-23T08:31:02;20.20;99.90
4052;DHT22;2040;50.924;11.604;2022-07-23T08:33:28;20.30;99.90
4052;DHT22;2040;50.924;11.604;2022-07-23T08:35:54;20.20;99.90
4052;DHT22;2040;50.924;11.604;2022-07-23T08:38:21;20.10;99.90
4052;DHT22;2040;50.924;11.604;2022-07-23T08:40:50;20.00;99.90
4052;DHT22;2040;50.924;11.604;2022-07-23T08:43:24;20.10;99.90
4052;DHT22;2040;50.924;11.604;2022-07-23T08:45:52;20.20;99.90
4052;DHT22;2040;50.924;11.604;2022-07-23T08:48:20;20.20;99.90
4052;DHT22;2040;50.924;11.604;2022-07-23T08:50:53;20.10;99.90
4052;DHT22;2040;50.924;11.604;2022-07-23T08:53:21;20.10;99.90
4052;DHT22;2040;50.924;11.604;2022-07-23T08:55:48;20.10;99.90
4052;DHT22;2040;50.924;11.604;2022-07-23T08:58:14;20.00;99.90
4052;DHT22;2040;50.924;11.604;2022-07-23T09:00:40;20.00;99.90
4052;DHT22;2040;50.924;11.604;2022-07-23T09:03:06;20.30;99.90
4052;DHT22;2040;50.924;11.604;2022-07-23T09:05:32;20.40;99.90
4052;DHT22;2040;50.924;11.604;2022-07-23T09:08:15;20.40;99.90
4052;DHT22;2040;50.924;11.604;2022-07-23T09:10:58;20.40;99.90
4052;DHT22;2040;50.924;11.604;2022-07-23T09:13:39;20.60;99.90
4052;DHT22;2040;50.924;11.604;2022-07-23T09:16:09;20.80;99.90
4052;DHT22;2040;50.924;11.604;2022-07-23T09:18:37;20.80;99.90
4052;DHT22;2040;50.924;11.604;2022-07-23T09:21:12;20.80;99.90
4052;DHT22;2040;50.924;11.604;2022-07-23T09:23:50;20.90;99.90
4052;DHT22;2040;50.924;11.604;2022-07-23T09:26:28;21.20;99.90
4052;DHT22;2040;50.924;11.604;2022-07-23T09:31:54;21.40;99.90
4052;DHT22;2040;50.924;11.604;2022-07-23T09:34:24;21.80;99.90
4052;DHT22;2040;50.924;11.604;2022-07-23T09:36:55;22.20;99.90
4052;DHT22;2040;50.924;11.604;2022-07-23T09:39:29;22.00;99.90
4052;DHT22;2040;50.924;11.604;2022-07-23T09:41:56;22.00;99.90
4052;DHT22;2040;50.924;11.604;2022-07-23T09:44:22;21.70;99.90
4052;DHT22;2040;50.924;11.604;2022-07-23T09:46:50;21.70;99.90
4052;DHT22;2040;50.924;11.604;2022-07-23T09:49:21;21.50;99.90
4052;DHT22;2040;50.924;11.604;2022-07-23T09:51:56;21.30;99.90
4052;DHT22;2040;50.924;11.604;2022-07-23T09:54:39;21.30;99.90
4052;DHT22;2040;50.924;11.604;2022-07-23T09:57:12;21.50;99.90
4052;DHT22;2040;50.924;11.604;2022-07-23T09:59:42;21.40;99.90
4052;DHT22;2040;50.924;11.604;2022-07-23T10:02:11;21.70;99.90
4052;DHT22;2040;50.924;11.604;2022-07-23T10:04:39;21.80;99.90
4052;DHT22;2040;50.924;11.604;2022-07-23T10:07:08;21.70;99.90
4052;DHT22;2040;50.924;11.604;2022-07-23T10:09:38;22.10;99.90
4052;DHT22;2040;50.924;11.604;2022-07-23T10:12:09;22.20;99.90
4052;DHT22;2040;50.924;11.604;2022-07-23T10:14:43;22.10;99.90
4052;DHT22;2040;50.924;11.604;2022-07-23T10:17:10;22.20;99.90
4052;DHT22;2040;50.924;11.604;2022-07-23T10:19:36;22.20;99.90
4052;DHT22;2040;50.924;11.604;2022-07-23T10:22:04;22.30;99.90
4052;DHT22;2040;50.924;11.604;2022-07-23T10:24:52;22.20;99.90
4052;DHT22;2040;50.924;11.604;2022-07-23T10:30:07;22.20;99.90
4052;DHT22;2040;50.924;11.604;2022-07-23T10:32:45;22.50;99.90
4052;DHT22;2040;50.924;11.604;2022-07-23T10:35:40;22.80;99.90
4052;DHT22;2040;50.924;11.604;2022-07-23T10:38:37;22.90;99.90
4052;DHT22;2040;50.924;11.604;2022-07-23T10:41:08;22.80;99.90
4052;DHT22;2040;50.924;11.604;2022-07-23T10:43:34;22.60;99.90
4052;DHT22;2040;50.924;11.604;2022-07-23T10:46:22;22.50;99.90
4052;DHT22;2040;50.924;11.604;2022-07-23T10:49:23;22.50;99.90
4052;DHT22;2040;50.924;11.604;2022-07-23T10:54:51;22.70;99.90
4052;DHT22;2040;50.924;11.604;2022-07-23T10:57:21;22.70;99.90
4052;DHT22;2040;50.924;11.604;2022-07-23T11:02:29;22.90;99.90
4052;DHT22;2040;50.924;11.604;2022-07-23T11:05:06;22.80;99.90
4052;DHT22;2040;50.924;11.604;2022-07-23T11:07:33;22.80;99.90
4052;DHT22;2040;50.924;11.604;2022-07-23T11:09:59;22.80;99.90
4052;DHT22;2040;50.924;11.604;2022-07-23T11:15:09;22.90;99.90
4052;DHT22;2040;50.924;11.604;2022-07-23T11:20:21;22.80;99.90
4052;DHT22;2040;50.924;11.604;2022-07-23T11:22:59;23.10;99.90
4052;DHT22;2040;50.924;11.604;2022-07-23T11:27:51;23.10;99.90
4052;DHT22;2040;50.924;11.604;2022-07-23T11:30:44;23.00;99.90
4052;DHT22;2040;50.924;11.604;2022-07-23T11:35:37;22.80;99.90
4052;DHT22;2040;50.924;11.604;2022-07-23T11:38:21;22.80;99.90
4052;DHT22;2040;50.924;11.604;2022-07-23T11:40:53;22.90;99.90
4052;DHT22;2040;50.924;11.604;2022-07-23T11:43:20;23.40;99.90
4052;DHT22;2040;50.924;11.604;2022-07-23T11:45:48;23.60;99.90
4052;DHT22;2040;50.924;11.604;2022-07-23T11:48:23;23.50;99.90
4052;DHT22;2040;50.924;11.604;2022-07-23T11:50:50;23.90;99.90
4052;DHT22;2040;50.924;11.604;2022-07-23T11:55:49;24.10;99.90
4052;DHT22;2040;50.924;11.604;2022-07-23T11:58:14;24.20;99.90
4052;DHT22;2040;50.924;11.604;2022-07-23T12:00:41;24.00;99.90
4052;DHT22;2040;50.924;11.604;2022-07-23T12:03:07;24.00;99.90
4052;DHT22;2040;50.924;11.604;2022-07-23T12:05:34;24.00;99.90
4052;DHT22;2040;50.924;11.604;2022-07-23T12:08:05;24.00;99.90
4052;DHT22;2040;50.924;11.604;2022-07-23T12:10:43;23.80;99.90
4052;DHT22;2040;50.924;11.604;2022-07-23T12:13:15;23.80;99.90
4052;DHT22;2040;50.924;11.604;2022-07-23T12:15:50;24.10;99.90
4052;DHT22;2040;50.924;11.604;2022-07-23T12:18:21;24.30;99.90
4052;DHT22;2040;50.924;11.604;2022-07-23T12:20:51;24.50;99.90
4052;DHT22;2040;50.924;11.604;2022-07-23T12:23:18;24.50;99.90
4052;DHT22;2040;50.924;11.604;2022-07-23T12:25:46;24.60;99.90
4052;DHT22;2040;50.924;11.604;2022-07-23T12:28:18;24.40;99.90
4052;DHT22;2040;50.924;11.604;2022-07-23T12:30:48;24.30;99.90
4052;DHT22;2040;50.924;11.604;2022-07-23T12:33:29;24.30;99.90
4052;DHT22;2040;50.924;11.604;2022-07-23T12:35:57;24.10;99.90
4052;DHT22;2040;50.924;11.604;2022-07-23T12:38:25;24.50;99.90
4052;DHT22;2040;50.924;11.604;2022-07-23T12:40:58;24.80;99.90
4052;DHT22;2040;50.924;11.604;2022-07-23T12:43:39;25.00;99.90
4052;DHT22;2040;50.924;11.604;2022-07-23T12:46:10;24.80;99.90
4052;DHT22;2040;50.924;11.604;2022-07-23T12:51:28;24.90;99.90
4052;DHT22;2040;50.924;11.604;2022-07-23T12:54:05;24.90;99.90
4052;DHT22;2040;50.924;11.604;2022-07-23T12:56:33;25.30;99.90
4052;DHT22;2040;50.924;11.604;2022-07-23T12:59:08;25.40;99.90
4052;DHT22;2040;50.924;11.604;2022-07-23T13:01:41;24.90;99.90
4052;DHT22;2040;50.924;11.604;2022-07-23T13:04:18;25.00;99.90
4052;DHT22;2040;50.924;11.604;2022-07-23T13:06:48;24.70;99.90
4052;DHT22;2040;50.924;11.604;2022-07-23T13:09:20;24.60;99.90
4052;DHT22;2040;50.924;11.604;2022-07-23T13:11:47;25.00;99.90
4052;DHT22;2040;50.924;11.604;2022-07-23T13:14:14;25.50;99.90
4052;DHT22;2040;50.924;11.604;2022-07-23T13:16:40;25.80;99.90
4052;DHT22;2040;50.924;11.604;2022-07-23T13:19:06;25.90;99.90
4052;DHT22;2040;50.924;11.604;2022-07-23T13:21:32;26.20;99.90
4052;DHT22;2040;50.924;11.604;2022-07-23T13:23:58;26.10;99.90
4052;DHT22;2040;50.924;11.604;2022-07-23T13:26:24;26.00;99.90
4052;DHT22;2040;50.924;11.604;2022-07-23T13:28:49;25.90;99.90
4052;DHT22;2040;50.924;11.604;2022-07-23T13:31:16;26.10;99.90
4052;DHT22;2040;50.924;11.604;2022-07-23T13:33:42;26.40;99.90
4052;DHT22;2040;50.924;11.604;2022-07-23T13:36:08;26.90;99.90
4052;DHT22;2040;50.924;11.604;2022-07-23T13:38:34;27.30;99.90
4052;DHT22;2040;50.924;11.604;2022-07-23T13:40:59;27.20;99.90
4052;DHT22;2040;50.924;11.604;2022-07-23T13:43:25;27.00;99.90
4052;DHT22;2040;50.924;11.604;2022-07-23T13:45:52;26.90;99.90
4052;DHT22;2040;50.924;11.604;2022-07-23T13:48:18;27.10;99.90
4052;DHT22;2040;50.924;11.604;2022-07-23T13:50:45;26.90;99.90
4052;DHT22;2040;50.924;11.604;2022-07-23T13:53:13;26.90;99.90
4052;DHT22;2040;50.924;11.604;2022-07-23T13:55:39;26.80;99.90
4052;DHT22;2040;50.924;11.604;2022-07-23T13:58:06;26.80;99.90
4052;DHT22;2040;50.924;11.604;2022-07-23T14:00:33;27.00;99.90
4052;DHT22;2040;50.924;11.604;2022-07-23T14:02:59;26.90;99.90
4052;DHT22;2040;50.924;11.604;2022-07-23T14:05:25;27.50;99.90
4052;DHT22;2040;50.924;11.604;2022-07-23T14:07:51;28.00;99.90
4052;DHT22;2040;50.924;11.604;2022-07-23T14:10:18;28.00;99.90
4052;DHT22;2040;50.924;11.604;2022-07-23T14:12:45;27.80;99.90
4052;DHT22;2040;50.924;11.604;2022-07-23T14:15:11;27.90;99.90
4052;DHT22;2040;50.924;11.604;2022-07-23T14:17:40;27.60;99.90
4052;DHT22;2040;50.924;11.604;2022-07-23T14:20:07;27.50;99.90
4052;DHT22;2040;50.924;11.604;2022-07-23T14:22:34;27.60;99.90
4052;DHT22;2040;50.924;11.604;2022-07-23T14:25:00;27.20;99.90
4052;DHT22;2040;50.924;11.604;2022-07-23T14:27:27;27.40;99.90
4052;DHT22;2040;50.924;11.604;2022-07-23T14:29:53;27.20;99.90
4052;DHT22;2040;50.924;11.604;2022-07-23T14:32:19;26.80;99.90
4052;DHT22;2040;50.924;11.604;2022-07-23T14:34:44;26.80;99.90
4052;DHT22;2040;50.924;11.604;2022-07-23T14:37:11;27.00;99.90
4052;DHT22;2040;50.924;11.604;2022-07-23T14:39:38;27.40;99.90
4052;DHT22;2040;50.924;11.604;2022-07-23T14:42:04;27.80;99.90
4052;DHT22;2040;50.924;11.604;2022-07-23T14:44:30;28.00;99.90
4052;DHT22;2040;50.924;11.604;2022-07-23T14:46:56;28.20;99.90
4052;DHT22;2040;50.924;11.604;2022-07-23T14:49:21;28.20;99.90
4052;DHT22;2040;50.924;11.604;2022-07-23T14:51:47;28.30;99.90
4052;DHT22;2040;50.924;11.604;2022-07-23T14:54:12;28.30;99.90
4052;DHT22;2040;50.924;11.604;2022-07-23T14:56:39;28.40;99.90
4052;DHT22;2040;50.924;11.604;2022-07-23T14:59:05;28.60;99.90
4052;DHT22;2040;50.924;11.604;2022-07-23T15:01:31;28.60;99.90
4052;DHT22;2040;50.924;11.604;2022-07-23T15:03:57;28.40;99.90
4052;DHT22;2040;50.924;11.604;2022-07-23T15:06:22;28.20;99.90
4052;DHT22;2040;50.924;11.604;2022-07-23T15:08:48;28.30;99.90
4052;DHT22;2040;50.924;11.604;2022-07-23T15:11:14;28.50;99.90
4052;DHT22;2040;50.924;11.604;2022-07-23T15:13:39;28.80;99.90
4052;DHT22;2040;50.924;11.604;2022-07-23T15:16:05;29.00;99.90
4052;DHT22;2040;50.924;11.604;2022-07-23T15:18:31;28.70;99.90
4052;DHT22;2040;50.924;11.604;2022-07-23T15:20:57;28.70;99.90
4052;DHT22;2040;50.924;11.604;2022-07-23T15:23:23;28.60;99.90
4052;DHT22;2040;50.924;11.604;2022-07-23T15:25:48;28.30;99.90
4052;DHT22;2040;50.924;11.604;2022-07-23T15:28:14;28.20;99.90
4052;DHT22;2040;50.924;11.604;2022-07-23T15:30:40;28.10;99.90
4052;DHT22;2040;50.924;11.604;2022-07-23T15:33:06;27.70;99.90
4052;DHT22;2040;50.924;11.604;2022-07-23T15:35:32;27.50;99.90
4052;DHT22;2040;50.924;11.604;2022-07-23T15:37:58;27.40;99.90
4052;DHT22;2040;50.924;11.604;2022-07-23T15:40:23;27.40;99.90
4052;DHT22;2040;50.924;11.604;2022-07-23T15:42:49;27.70;99.90
4052;DHT22;2040;50.924;11.604;2022-07-23T15:45:15;27.40;99.90
4052;DHT22;2040;50.924;11.604;2022-07-23T15:47:41;27.30;99.90
4052;DHT22;2040;50.924;11.604;2022-07-23T15:50:08;27.40;99.90
4052;DHT22;2040;50.924;11.604;2022-07-23T15:52:35;27.50;99.90
4052;DHT22;2040;50.924;11.604;2022-07-23T15:55:01;27.70;99.90
4052;DHT22;2040;50.924;11.604;2022-07-23T15:57:26;28.00;99.90
4052;DHT22;2040;50.924;11.604;2022-07-23T15:59:52;28.10;99.90
4052;DHT22;2040;50.924;11.604;2022-07-23T16:02:17;28.10;99.90
4052;DHT22;2040;50.924;11.604;2022-07-23T16:04:43;28.00;99.90
4052;DHT22;2040;50.924;11.604;2022-07-23T16:07:08;27.90;99.90
4052;DHT22;2040;50.924;11.604;2022-07-23T16:09:34;27.80;99.90
4052;DHT22;2040;50.924;11.604;2022-07-23T16:12:00;27.60;99.90
4052;DHT22;2040;50.924;11.604;2022-07-23T16:14:25;27.40;99.90